Time;durP1;ratioP1;P1;durP2;ratioP2;P2;SDS_P1;SDS_P2;PMS_P1;PMS_P2;Temp;Humidity;BMP_temperature;BMP_pressure;BME280_temperature;BME280_humidity;BME280_pressure;Samples;Min_cycle;Max_cycle;Signal;HPM_P1;HPM_P2
2022/10/06 00:00:21;;;;;;;7.30;4.73;;;;;;;10.55;100.00;102752.63;2074319;28;20471;-59
2022/10/06 00:01:22;;;;;;;7.03;4.90;;;;;;;10.55;100.00;102758.16;2074390;28;20590;-59
2022/10/06 00:02:23;;;;;;;7.10;4.50;;;;;;;10.44;100.00;102749.72;2074245;28;20655;-59
2022/10/06 00:03:23;;;;;;;8.60;4.80;;;;;;;10.50;100.00;102759.28;2074332;28;20212;-59
2022/10/06 00:04:24;;;;;;;7.90;4.70;;;;;;;10.36;100.00;102748.03;2074295;28;20568;-59
2022/10/06 00:05:24;;;;;;;7.00;4.67;;;;;;;10.29;100.00;102736.88;2074534;28;20189;-59
2022/10/06 00:06:25;;;;;;;6.83;4.30;;;;;;;10.35;100.00;102760.31;2074278;28;20644;-59
2022/10/06 00:07:25;;;;;;;7.03;4.60;;;;;;;10.34;100.00;102753.19;2074387;28;20258;-59
2022/10/06 00:08:26;;;;;;;8.30;4.60;;;;;;;10.37;100.00;102762.69;2074272;28;20685;-59
2022/10/06 00:09:26;;;;;;;8.27;4.40;;;;;;;10.38;100.00;102756.78;2074225;28;20219;-59
2022/10/06 00:10:27;;;;;;;7.00;4.30;;;;;;;10.39;100.00;102761.16;2074479;28;20181;-59
2022/10/06 00:11:28;;;;;;;6.47;4.30;;;;;;;10.40;100.00;102764.72;2074451;28;20183;-58
2022/10/06 00:12:28;;;;;;;8.73;4.70;;;;;;;10.39;100.00;102758.38;2074174;28;20180;-59
2022/10/06 00:13:30;;;;;;;6.00;4.33;;;;;;;10.38;100.00;102754.00;2074178;28;20204;-59
2022/10/06 00:14:30;;;;;;;5.87;4.33;;;;;;;10.38;100.00;102758.75;2074330;28;20660;-58
2022/10/06 00:15:32;;;;;;;9.20;4.67;;;;;;;10.12;100.00;102711.75;2074132;28;20823;-59
2022/10/06 00:16:32;;;;;;;8.37;4.37;;;;;;;10.37;100.00;102752.44;2074313;28;20170;-59
2022/10/06 00:17:33;;;;;;;7.57;4.40;;;;;;;10.37;100.00;102748.84;2073824;28;20905;-59
2022/10/06 00:18:34;;;;;;;8.17;4.90;;;;;;;10.39;100.00;102752.03;2073652;28;20218;-59
2022/10/06 00:19:34;;;;;;;7.20;4.30;;;;;;;10.40;100.00;102750.88;2074280;28;20421;-59
2022/10/06 00:20:35;;;;;;;9.13;4.67;;;;;;;10.41;100.00;102753.25;2074205;28;20569;-59
2022/10/06 00:21:35;;;;;;;10.20;4.43;;;;;;;10.40;100.00;102746.09;2074117;28;20206;-59
2022/10/06 00:22:44;;;;;;;5.67;4.20;;;;;;;10.26;100.00;102725.78;2074190;28;20218;-59
2022/10/06 00:23:44;;;;;;;6.87;4.37;;;;;;;10.41;100.00;102744.91;2074186;28;20200;-59
2022/10/06 00:24:45;;;;;;;7.17;4.43;;;;;;;10.39;100.00;102740.94;2074102;28;20921;-59
2022/10/06 00:25:45;;;;;;;6.97;4.60;;;;;;;10.35;100.00;102732.59;2074128;28;20181;-59
2022/10/06 00:26:46;;;;;;;5.97;4.50;;;;;;;10.45;100.00;102751.31;2074138;28;20235;-59
2022/10/06 00:27:49;;;;;;;6.10;4.57;;;;;;;10.45;100.00;102748.53;2074150;28;20221;-59
2022/10/06 00:28:49;;;;;;;6.97;4.20;;;;;;;10.45;100.00;102739.44;2074092;28;20178;-59
2022/10/06 00:29:50;;;;;;;8.23;4.80;;;;;;;10.46;100.00;102743.81;2074118;28;20424;-59
2022/10/06 00:30:52;;;;;;;7.47;4.30;;;;;;;9.94;100.00;102653.34;2074027;28;20665;-59
2022/10/06 00:31:52;;;;;;;8.83;4.53;;;;;;;10.49;100.00;102740.25;2074054;28;20177;-59
2022/10/06 00:33:00;;;;;;;8.27;4.47;;;;;;;10.50;100.00;102739.88;2073992;28;20436;-59
2022/10/06 00:34:00;;;;;;;5.83;3.80;;;;;;;10.48;100.00;102739.47;2074162;28;20180;-59
2022/10/06 00:35:01;;;;;;;9.23;4.30;;;;;;;10.51;100.00;102741.47;2074031;28;20423;-59
2022/10/06 00:36:01;;;;;;;5.47;4.20;;;;;;;10.53;100.00;102741.91;2074064;28;20690;-59
2022/10/06 00:37:02;;;;;;;8.07;4.10;;;;;;;10.55;100.00;102742.31;2074170;28;20254;-59
2022/10/06 00:38:02;;;;;;;6.30;4.33;;;;;;;10.57;100.00;102750.25;2074031;28;20184;-58
2022/10/06 00:39:03;;;;;;;6.20;3.83;;;;;;;10.59;100.00;102739.56;2074223;28;20655;-59
2022/10/06 00:40:08;;;;;;;5.60;3.70;;;;;;;10.36;100.00;102716.75;2073388;28;20178;-59
2022/10/06 00:41:12;;;;;;;5.83;4.30;;;;;;;10.63;100.00;102740.41;2073372;28;20699;-60
2022/10/06 00:42:30;;;;;;;7.67;4.00;;;;;;;10.59;100.00;102737.59;2074187;28;20415;-59
2022/10/06 00:43:42;;;;;;;5.50;3.80;;;;;;;10.60;100.00;102739.19;2074212;28;20427;-59
2022/10/06 00:44:42;;;;;;;8.67;4.20;;;;;;;10.52;100.00;102736.72;2073300;28;20457;-59
2022/10/06 00:45:47;;;;;;;6.47;3.90;;;;;;;10.52;100.00;102743.09;2073267;28;20869;-59
2022/10/06 00:46:51;;;;;;;6.27;4.30;;;;;;;10.54;100.00;102739.91;2081078;28;20581;-59
2022/10/06 00:47:53;;;;;;;6.73;3.70;;;;;;;10.55;100.00;102733.19;2073794;28;20420;-59
2022/10/06 00:49:17;;;;;;;6.87;3.80;;;;;;;10.49;100.00;102735.50;2073944;28;20812;-59
2022/10/06 00:50:18;;;;;;;6.20;4.10;;;;;;;10.41;100.00;102724.75;2073645;28;20438;-59
2022/10/06 00:51:20;;;;;;;5.73;3.70;;;;;;;10.10;100.00;102683.63;2074151;28;20490;-59
2022/10/06 00:52:24;;;;;;;6.63;3.83;;;;;;;10.07;100.00;102673.31;2073911;28;20186;-59
2022/10/06 00:53:28;;;;;;;7.40;3.63;;;;;;;10.43;100.00;102733.47;2073957;28;20837;-58
2022/10/06 00:54:31;;;;;;;6.50;3.70;;;;;;;10.45;100.00;102734.69;2073873;28;20507;-59
2022/10/06 00:55:31;;;;;;;7.63;3.80;;;;;;;10.47;100.00;102732.34;2073862;28;20503;-59
2022/10/06 00:56:32;;;;;;;6.07;3.70;;;;;;;10.45;100.00;102726.34;2073981;28;20425;-59
2022/10/06 00:57:35;;;;;;;7.20;3.80;;;;;;;10.44;100.00;102744.16;2073253;28;20220;-59
2022/10/06 00:58:37;;;;;;;6.73;3.77;;;;;;;10.39;100.00;102741.75;2073293;28;20173;-59
2022/10/06 00:59:38;;;;;;;5.30;3.67;;;;;;;10.39;100.00;102750.06;2073879;28;20424;-59
2022/10/06 01:00:43;;;;;;;7.13;3.43;;;;;;;10.39;100.00;102735.38;2073829;28;20936;-59
2022/10/06 01:01:59;;;;;;;7.40;3.20;;;;;;;10.12;100.00;102687.63;2073783;28;20460;-59
2022/10/06 01:03:14;;;;;;;7.83;3.60;;;;;;;10.37;100.00;102735.78;2073912;28;20404;-58
2022/10/06 01:04:17;;;;;;;5.77;3.37;;;;;;;9.98;100.00;102662.50;2073742;28;20424;-59
2022/10/06 01:05:29;;;;;;;7.57;3.10;;;;;;;10.39;100.00;102727.88;2073842;28;20481;-59
2022/10/06 01:06:40;;;;;;;5.40;3.40;;;;;;;10.26;100.00;102714.69;2073991;28;20918;-59
2022/10/06 01:07:41;;;;;;;5.60;3.20;;;;;;;10.35;100.00;102712.41;2073862;28;20421;-59
2022/10/06 01:08:41;;;;;;;5.00;3.40;;;;;;;10.39;100.00;102724.31;2073755;28;20425;-59
2022/10/06 01:09:42;;;;;;;4.77;2.90;;;;;;;10.38;100.00;102725.50;2073816;28;20717;-59
2022/10/06 01:10:43;;;;;;;4.53;3.20;;;;;;;9.83;100.00;102626.69;2073797;28;20259;-58
2022/10/06 01:11:46;;;;;;;3.73;2.80;;;;;;;10.38;100.00;102717.97;2073744;28;20566;-59
2022/10/06 01:12:47;;;;;;;4.70;3.20;;;;;;;10.37;100.00;102724.72;2073894;28;20973;-59
2022/10/06 01:13:47;;;;;;;7.33;2.97;;;;;;;10.35;100.00;102718.72;2073766;28;20806;-59
2022/10/06 01:14:48;;;;;;;4.10;2.77;;;;;;;10.33;100.00;102723.06;2073931;28;20269;-59
2022/10/06 01:16:17;;;;;;;5.20;3.10;;;;;;;10.30;100.00;102719.06;2073723;28;20177;-59
2022/10/06 01:18:07;;;;;;;5.33;2.70;;;;;;;10.25;100.00;102721.41;2073826;28;20165;-59
2022/10/06 01:19:35;;;;;;;3.17;2.70;;;;;;;10.21;100.00;102713.06;2073081;28;20428;-58
2022/10/06 01:20:37;;;;;;;4.83;2.93;;;;;;;9.66;100.00;102636.44;2072830;28;20426;-59
2022/10/06 01:21:43;;;;;;;6.03;2.87;;;;;;;10.15;100.00;102717.31;2073076;28;20462;-59
2022/10/06 01:22:52;;;;;;;7.47;2.83;;;;;;;10.03;100.00;102692.63;2065655;28;20431;-59
2022/10/06 01:23:55;;;;;;;5.03;2.97;;;;;;;10.16;100.00;102718.94;2065619;28;20437;-59
2022/10/06 01:24:56;;;;;;;4.90;2.67;;;;;;;9.93;100.00;102681.41;2065561;28;20428;-59
2022/10/06 01:25:58;;;;;;;4.83;2.90;;;;;;;10.15;100.00;102714.56;2065572;28;20426;-59
2022/10/06 01:27:00;;;;;;;7.07;2.73;;;;;;;10.00;100.00;102703.69;2065527;28;20682;-59
2022/10/06 01:28:03;;;;;;;4.77;2.90;;;;;;;10.10;100.00;102712.13;2065511;28;20449;-59
2022/10/06 01:29:03;;;;;;;4.77;2.83;;;;;;;10.09;100.00;102718.84;2065377;28;20447;-59
2022/10/06 01:30:07;;;;;;;3.40;2.50;;;;;;;10.09;100.00;102716.06;2065564;28;20428;-59
2022/10/06 01:31:08;;;;;;;5.70;3.20;;;;;;;10.02;100.00;102706.84;2069571;28;20177;-59
2022/10/06 01:32:09;;;;;;;4.40;3.00;;;;;;;9.78;100.00;102672.16;2073649;28;20429;-59
2022/10/06 01:33:09;;;;;;;6.77;2.97;;;;;;;10.05;100.00;102720.00;2073652;28;20428;-59
2022/10/06 01:34:10;;;;;;;4.67;3.07;;;;;;;10.04;100.00;102724.72;2073632;28;20181;-59
2022/10/06 01:35:10;;;;;;;4.73;3.10;;;;;;;10.02;100.00;102723.47;2073559;28;20185;-59
2022/10/06 01:36:11;;;;;;;4.40;2.90;;;;;;;9.97;100.00;102723.81;2073687;28;20185;-58
2022/10/06 01:37:11;;;;;;;5.03;3.00;;;;;;;9.98;100.00;102719.84;2073712;28;20609;-59
2022/10/06 01:38:11;;;;;;;7.80;3.20;;;;;;;9.98;100.00;102722.63;2073574;28;20183;-59
2022/10/06 01:39:12;;;;;;;8.53;3.80;;;;;;;9.98;100.00;102714.31;2073585;28;20569;-59
2022/10/06 01:40:12;;;;;;;8.57;3.60;;;;;;;9.96;100.00;102709.19;2073689;28;20204;-59
2022/10/06 01:41:13;;;;;;;9.63;3.27;;;;;;;9.98;100.00;102708.78;2073475;28;20188;-59
2022/10/06 01:42:13;;;;;;;7.30;3.10;;;;;;;9.98;100.00;102712.34;2073670;28;20180;-59
2022/10/06 01:43:14;;;;;;;8.90;3.33;;;;;;;9.97;100.00;102704.41;2073587;28;20263;-59
2022/10/06 01:44:14;;;;;;;6.00;3.20;;;;;;;9.48;100.00;102635.41;2073495;28;20173;-58
2022/10/06 01:45:15;;;;;;;6.37;3.33;;;;;;;9.88;100.00;102704.72;2073601;28;20184;-59
2022/10/06 01:46:15;;;;;;;4.90;3.20;;;;;;;9.90;100.00;102704.34;2073664;28;20537;-59
2022/10/06 01:47:16;;;;;;;4.67;3.10;;;;;;;9.69;100.00;102668.88;2073557;28;20184;-60
2022/10/06 01:48:16;;;;;;;5.57;2.70;;;;;;;9.92;100.00;102705.56;2073541;28;20237;-59
2022/10/06 01:49:17;;;;;;;5.23;2.90;;;;;;;9.92;100.00;102707.53;2073545;28;20271;-59
2022/10/06 01:50:17;;;;;;;4.10;2.77;;;;;;;9.59;100.00;102655.69;2073554;28;20177;-58
2022/10/06 01:51:18;;;;;;;4.27;2.77;;;;;;;9.94;100.00;102708.75;2073597;28;20188;-59
2022/10/06 01:52:19;;;;;;;5.20;2.53;;;;;;;9.95;100.00;102715.09;2073610;28;20185;-59
2022/10/06 01:53:20;;;;;;;6.17;2.53;;;;;;;9.81;100.00;102688.03;2073488;28;20216;-59
2022/10/06 01:54:21;;;;;;;6.90;2.80;;;;;;;9.95;100.00;102715.09;2073500;28;20794;-59
2022/10/06 01:55:22;;;;;;;7.57;3.03;;;;;;;9.94;100.00;102713.50;2073508;28;20416;-58
2022/10/06 01:56:23;;;;;;;4.93;2.83;;;;;;;9.93;100.00;102709.94;2073433;28;20217;-59
2022/10/06 01:57:23;;;;;;;3.77;2.67;;;;;;;9.95;100.00;102718.63;2073466;28;20424;-58
2022/10/06 01:58:24;;;;;;;5.07;2.53;;;;;;;9.96;100.00;102716.69;2073504;28;20185;-59
2022/10/06 01:59:24;;;;;;;3.40;2.70;;;;;;;9.82;100.00;102691.56;2073475;28;20181;-59
2022/10/06 02:00:25;;;;;;;4.80;2.87;;;;;;;9.90;100.00;102710.66;2073566;28;20179;-59
2022/10/06 02:01:25;;;;;;;4.30;2.70;;;;;;;9.94;100.00;102710.75;2073509;28;20180;-59
2022/10/06 02:02:29;;;;;;;8.57;2.77;;;;;;;9.73;100.00;102680.03;2073496;28;20643;-58
2022/10/06 02:03:30;;;;;;;4.27;2.33;;;;;;;9.93;100.00;102711.88;2073370;28;20567;-59
2022/10/06 02:04:30;;;;;;;10.70;2.80;;;;;;;9.50;100.00;102648.88;2073429;28;20455;-59
2022/10/06 02:05:31;;;;;;;6.70;2.80;;;;;;;9.94;100.00;102716.28;2073661;28;20182;-59
2022/10/06 02:06:31;;;;;;;7.73;3.27;;;;;;;9.47;100.00;102636.56;2073421;28;20633;-59
2022/10/06 02:07:34;;;;;;;5.33;2.77;;;;;;;9.97;100.00;102707.19;2073475;28;20187;-59
2022/10/06 02:08:35;;;;;;;11.40;2.70;;;;;;;9.42;100.00;102617.53;2073427;28;20184;-59
2022/10/06 02:09:35;;;;;;;6.27;2.70;;;;;;;9.94;100.00;102694.13;2073424;28;20531;-59
2022/10/06 02:10:36;;;;;;;5.23;2.50;;;;;;;9.96;100.00;102700.88;2073410;28;20184;-59
2022/10/06 02:11:37;;;;;;;6.60;2.70;;;;;;;9.80;100.00;102677.31;2073347;28;20191;-59
2022/10/06 02:12:37;;;;;;;7.57;2.63;;;;;;;9.93;100.00;102693.31;2073504;28;20188;-59
2022/10/06 02:13:38;;;;;;;6.07;2.77;;;;;;;10.00;100.00;102703.69;2073430;28;20256;-59
2022/10/06 02:14:38;;;;;;;6.33;2.60;;;;;;;9.83;100.00;102673.78;2073647;28;20186;-58
2022/10/06 02:15:39;;;;;;;4.20;2.40;;;;;;;10.01;100.00;102705.25;2073377;28;20219;-59
2022/10/06 02:16:39;;;;;;;6.87;3.23;;;;;;;9.52;100.00;102625.19;2073239;28;20275;-59
2022/10/06 02:17:40;;;;;;;6.40;3.13;;;;;;;10.03;100.00;102705.66;2073457;28;20183;-58
2022/10/06 02:18:41;;;;;;;5.47;3.20;;;;;;;10.02;100.00;102709.63;2073311;28;20204;-59
2022/10/06 02:19:41;;;;;;;7.23;3.23;;;;;;;9.95;100.00;102709.56;2073375;28;20185;-59
2022/10/06 02:20:41;;;;;;;6.37;3.17;;;;;;;9.87;100.00;102705.09;2073390;28;20641;-58
2022/10/06 02:21:42;;;;;;;11.33;3.60;;;;;;;9.86;100.00;102706.28;2073345;28;20207;-58
2022/10/06 02:22:43;;;;;;;8.03;2.93;;;;;;;9.84;100.00;102706.66;2073596;28;20176;-59
2022/10/06 02:23:44;;;;;;;7.77;3.43;;;;;;;9.83;100.00;102705.06;2073398;28;20184;-58
2022/10/06 02:24:44;;;;;;;13.83;3.67;;;;;;;9.85;100.00;102707.44;2073300;28;20419;-58
2022/10/06 02:25:44;;;;;;;12.50;3.30;;;;;;;9.84;100.00;102706.66;2073368;28;20191;-59
2022/10/06 02:26:45;;;;;;;10.93;2.97;;;;;;;9.78;100.00;102696.31;2073369;28;20203;-58
2022/10/06 02:27:46;;;;;;;8.33;2.93;;;;;;;9.78;100.00;102688.78;2073391;28;20222;-58
2022/10/06 02:28:48;;;;;;;6.50;2.90;;;;;;;9.83;100.00;102707.00;2073455;28;20186;-58
2022/10/06 02:29:49;;;;;;;4.43;2.47;;;;;;;9.85;100.00;102707.44;2073312;28;20188;-59
2022/10/06 02:30:49;;;;;;;9.07;2.73;;;;;;;9.83;100.00;102705.06;2073340;28;20979;-58
2022/10/06 02:31:51;;;;;;;5.03;2.83;;;;;;;9.83;100.00;102705.06;2073342;28;20200;-58
2022/10/06 02:32:51;;;;;;;6.10;2.53;;;;;;;9.51;100.00;102654.03;2073452;28;20185;-59
2022/10/06 02:33:51;;;;;;;4.33;2.63;;;;;;;9.84;100.00;102705.88;2073358;28;20503;-58
2022/10/06 02:34:52;;;;;;;6.83;2.20;;;;;;;9.83;100.00;102696.75;2073244;28;20650;-58
2022/10/06 02:35:54;;;;;;;5.23;2.50;;;;;;;9.73;100.00;102685.56;2073420;28;20185;-58
2022/10/06 02:36:55;;;;;;;5.47;2.90;;;;;;;9.76;100.00;102693.91;2073328;28;20426;-58
2022/10/06 02:37:56;;;;;;;9.00;2.57;;;;;;;9.80;100.00;102705.00;2073416;28;20513;-59
2022/10/06 02:38:56;;;;;;;9.03;2.80;;;;;;;9.78;100.00;102699.06;2073296;28;20181;-59
2022/10/06 02:39:57;;;;;;;8.07;3.00;;;;;;;9.77;100.00;102695.50;2073448;28;20718;-59
2022/10/06 02:40:58;;;;;;;10.33;2.53;;;;;;;8.97;100.00;102575.44;2073324;28;20267;-59
2022/10/06 02:41:59;;;;;;;6.50;3.03;;;;;;;9.77;100.00;102689.16;2074896;28;20203;-58
2022/10/06 02:42:59;;;;;;;5.93;2.70;;;;;;;9.75;100.00;102688.72;2074937;28;20426;-58
2022/10/06 02:44:00;;;;;;;5.10;2.80;;;;;;;9.76;100.00;102698.63;2074941;28;20182;-59
2022/10/06 02:45:01;;;;;;;9.77;2.97;;;;;;;9.76;100.00;102690.31;2074974;28;20228;-59
2022/10/06 02:46:04;;;;;;;6.33;3.20;;;;;;;9.75;100.00;102689.53;2074944;28;20187;-59
2022/10/06 02:47:05;;;;;;;5.00;2.93;;;;;;;9.77;100.00;102691.91;2075126;28;20673;-59
2022/10/06 02:48:05;;;;;;;8.37;3.20;;;;;;;9.76;100.00;102685.59;2074610;28;20810;-59
2022/10/06 02:49:05;;;;;;;6.13;3.20;;;;;;;9.75;100.00;102686.78;2074978;28;20171;-59
2022/10/06 02:50:07;;;;;;;6.33;3.00;;;;;;;9.27;100.00;102603.91;2074857;28;20560;-58
2022/10/06 02:51:14;;;;;;;6.73;3.23;;;;;;;9.74;100.00;102678.84;2074778;28;20264;-59
2022/10/06 02:52:15;;;;;;;5.50;2.93;;;;;;;9.69;100.00;102679.19;2075005;28;20418;-59
2022/10/06 02:53:15;;;;;;;4.90;3.00;;;;;;;9.14;100.00;102585.94;2075106;28;20422;-59
2022/10/06 02:54:16;;;;;;;4.53;2.70;;;;;;;9.74;100.00;102684.38;2074924;28;20207;-59
2022/10/06 02:55:16;;;;;;;7.20;2.90;;;;;;;9.74;100.00;102678.84;2074879;28;20176;-59
2022/10/06 02:56:20;;;;;;;3.90;2.60;;;;;;;9.75;100.00;102677.66;2074740;28;20189;-59
2022/10/06 02:57:21;;;;;;;4.90;2.60;;;;;;;9.69;100.00;102682.72;2074798;28;20569;-59
2022/10/06 02:58:21;;;;;;;4.93;2.97;;;;;;;9.73;100.00;102685.56;2074781;28;20529;-59
2022/10/06 02:59:22;;;;;;;5.10;2.90;;;;;;;9.74;100.00;102681.59;2074756;28;20177;-58
2022/10/06 03:00:22;;;;;;;5.57;3.10;;;;;;;9.74;100.00;102684.38;2074922;28;20196;-59
2022/10/06 03:01:25;;;;;;;4.23;2.60;;;;;;;9.73;100.00;102678.03;2074607;28;20792;-59
2022/10/06 03:02:28;;;;;;;6.20;3.10;;;;;;;9.74;100.00;102687.94;2074824;28;20176;-59
2022/10/06 03:03:29;;;;;;;6.53;2.90;;;;;;;9.65;100.00;102664.47;2074755;28;20446;-59
2022/10/06 03:04:30;;;;;;;4.23;2.90;;;;;;;9.46;100.00;102631.41;2074779;28;20420;-59
2022/10/06 03:05:30;;;;;;;7.73;3.20;;;;;;;9.50;100.00;102641.38;2074782;28;20416;-59
2022/10/06 03:06:31;;;;;;;6.67;2.97;;;;;;;9.71;100.00;102677.63;2074662;28;20187;-59
2022/10/06 03:07:31;;;;;;;5.17;3.10;;;;;;;9.72;100.00;102672.88;2074955;28;20215;-59
2022/10/06 03:08:32;;;;;;;4.47;2.90;;;;;;;9.37;100.00;102615.09;2074769;28;20230;-59
2022/10/06 03:09:32;;;;;;;4.87;3.20;;;;;;;9.73;100.00;102677.25;2074719;28;20704;-59
2022/10/06 03:10:33;;;;;;;4.97;3.10;;;;;;;9.71;100.00;102677.63;2074708;28;20818;-59
2022/10/06 03:11:36;;;;;;;5.80;3.00;;;;;;;9.73;100.00;102674.47;2074827;28;20177;-59
2022/10/06 03:12:37;;;;;;;5.20;3.10;;;;;;;9.73;100.00;102682.78;2074654;28;20677;-59
2022/10/06 03:13:37;;;;;;;6.17;3.13;;;;;;;9.69;100.00;102674.41;2074723;28;20800;-59
2022/10/06 03:14:38;;;;;;;6.40;3.20;;;;;;;9.28;100.00;102605.50;2074538;28;20191;-59
2022/10/06 03:15:38;;;;;;;5.70;3.00;;;;;;;9.73;100.00;102680.81;2074707;28;20182;-59
2022/10/06 03:16:41;;;;;;;6.43;3.20;;;;;;;9.74;100.00;102681.59;2074837;28;20206;-59
2022/10/06 03:17:41;;;;;;;4.97;3.40;;;;;;;9.74;100.00;102676.84;2073958;28;20190;-59
2022/10/06 03:18:44;;;;;;;3.90;2.83;;;;;;;9.75;100.00;102672.94;2074057;28;20445;-59
2022/10/06 03:19:44;;;;;;;4.30;3.13;;;;;;;9.67;100.00;102664.88;2074560;28;20528;-59
2022/10/06 03:20:44;;;;;;;3.97;2.57;;;;;;;9.73;100.00;102678.03;2074617;28;20496;-59
2022/10/06 03:21:45;;;;;;;5.50;3.40;;;;;;;9.73;100.00;102675.25;2074617;28;20200;-58
2022/10/06 03:22:45;;;;;;;4.37;2.97;;;;;;;9.72;100.00;102676.44;2074658;28;20185;-59
2022/10/06 03:23:47;;;;;;;4.80;3.30;;;;;;;9.71;100.00;102668.50;2074566;28;20665;-58
2022/10/06 03:24:48;;;;;;;8.20;3.43;;;;;;;9.72;100.00;102679.22;2074696;28;20189;-58
2022/10/06 03:25:56;;;;;;;9.30;3.57;;;;;;;9.65;100.00;102676.38;2074726;28;20415;-59
2022/10/06 03:26:57;;;;;;;8.77;3.80;;;;;;;9.44;100.00;102656.69;2074708;28;20310;-58
2022/10/06 03:27:57;;;;;;;6.17;3.50;;;;;;;9.59;100.00;102677.84;2074575;28;20494;-59
2022/10/06 03:28:59;;;;;;;10.13;3.97;;;;;;;9.54;100.00;102680.94;2074513;28;20175;-58
2022/10/06 03:29:59;;;;;;;8.15;3.47;;;;;;;9.53;100.00;102684.13;2074685;28;20186;-58
2022/10/06 03:31:01;;;;;;;9.33;3.60;;;;;;;9.37;100.00;102659.38;2074574;28;20176;-58
2022/10/06 03:32:02;;;;;;;9.37;3.47;;;;;;;9.51;100.00;102672.59;2074657;28;20259;-58
2022/10/06 03:33:02;;;;;;;7.77;3.00;;;;;;;9.49;100.00;102683.25;2074538;28;20924;-58
2022/10/06 03:34:03;;;;;;;10.63;3.20;;;;;;;9.47;100.00;102685.59;2074557;28;20175;-58
2022/10/06 03:35:04;;;;;;;7.23;2.87;;;;;;;9.45;100.00;102679.66;2074459;28;20554;-59
2022/10/06 03:36:08;;;;;;;9.97;3.13;;;;;;;9.46;100.00;102678.47;2074566;28;20174;-58
2022/10/06 03:37:09;;;;;;;7.93;3.33;;;;;;;9.46;100.00;102676.50;2074567;28;20180;-59
2022/10/06 03:38:09;;;;;;;6.03;3.20;;;;;;;9.45;100.00;102687.94;2074497;28;20486;-59
2022/10/06 03:39:10;;;;;;;6.47;2.93;;;;;;;9.36;100.00;102668.84;2074450;28;20244;-58
2022/10/06 03:40:10;;;;;;;8.10;3.30;;;;;;;9.45;100.00;102685.19;2074638;28;20223;-58
2022/10/06 03:41:19;;;;;;;6.23;3.17;;;;;;;9.42;100.00;102683.16;2073786;28;20657;-58
2022/10/06 03:42:20;;;;;;;7.47;3.40;;;;;;;9.40;100.00;102683.56;2074230;28;20170;-59
2022/10/06 03:43:20;;;;;;;6.27;3.30;;;;;;;9.34;100.00;102684.25;2074433;28;20183;-59
2022/10/06 03:44:21;;;;;;;11.17;3.30;;;;;;;9.37;100.00;102680.75;2074482;28;20174;-59
2022/10/06 03:45:22;;;;;;;14.10;4.53;;;;;;;9.35;100.00;102688.59;2073793;28;20268;-58
2022/10/06 03:46:24;;;;;;;12.80;4.50;;;;;;;9.33;100.00;102688.97;2073831;28;20673;-58
2022/10/06 03:47:25;;;;;;;12.07;3.87;;;;;;;9.31;100.00;102685.78;2074427;28;20616;-58
2022/10/06 03:48:27;;;;;;;12.27;4.00;;;;;;;9.29;100.00;102692.88;2074195;28;20496;-59
2022/10/06 03:49:27;;;;;;;9.40;4.30;;;;;;;9.26;100.00;102686.09;2074384;28;20732;-58
2022/10/06 03:50:28;;;;;;;12.30;4.50;;;;;;;9.26;100.00;102693.59;2074376;28;20793;-58
2022/10/06 03:51:36;;;;;;;13.13;4.37;;;;;;;9.26;100.00;102683.34;2074312;28;20311;-59
2022/10/06 03:52:36;;;;;;;13.00;4.17;;;;;;;9.27;100.00;102692.44;2073593;28;20251;-59
2022/10/06 03:53:38;;;;;;;15.33;4.43;;;;;;;9.05;100.00;102669.22;2073934;28;20419;-58
2022/10/06 03:54:38;;;;;;;13.93;4.00;;;;;;;9.22;100.00;102690.00;2074318;28;20246;-58
2022/10/06 03:55:38;;;;;;;14.93;4.73;;;;;;;9.25;100.00;102689.25;2074477;28;20330;-58
2022/10/06 03:56:40;;;;;;;13.27;4.67;;;;;;;9.26;100.00;102694.41;2074329;28;20236;-59
2022/10/06 03:57:40;;;;;;;12.13;4.57;;;;;;;9.27;100.00;102687.69;2074378;28;20179;-59
2022/10/06 03:58:44;;;;;;;13.27;4.40;;;;;;;9.28;100.00;102700.34;2074384;28;20432;-59
2022/10/06 03:59:44;;;;;;;13.18;4.55;;;;;;;9.30;100.00;102686.97;2074276;28;20650;-58
2022/10/06 04:00:45;;;;;;;16.07;4.90;;;;;;;9.31;100.00;102687.75;2074255;28;20600;-59
2022/10/06 04:01:47;;;;;;;10.67;4.07;;;;;;;9.33;100.00;102694.50;2074275;28;20263;-58
2022/10/06 04:02:49;;;;;;;12.50;4.77;;;;;;;9.30;100.00;102677.84;2074263;28;20266;-58
2022/10/06 04:03:49;;;;;;;9.33;4.40;;;;;;;9.36;100.00;102690.19;2074272;28;20901;-58
2022/10/06 04:04:50;;;;;;;11.47;5.27;;;;;;;9.26;100.00;102679.78;2073527;28;20500;-58
2022/10/06 04:05:56;;;;;;;14.20;4.90;;;;;;;9.29;100.00;102698.41;2073785;28;20181;-59
2022/10/06 04:06:56;;;;;;;12.15;4.90;;;;;;;9.29;100.00;102698.41;2073566;28;20183;-59
2022/10/06 04:07:57;;;;;;;18.50;5.03;;;;;;;9.30;100.00;102702.75;2073682;28;20685;-59
2022/10/06 04:08:58;;;;;;;17.50;4.97;;;;;;;9.33;100.00;102702.81;2074389;28;20183;-59
2022/10/06 04:09:59;;;;;;;10.10;5.07;;;;;;;9.34;100.00;102701.66;2074342;28;20173;-59
2022/10/06 04:11:06;;;;;;;12.13;4.77;;;;;;;9.36;100.00;102707.59;2074262;28;20424;-59
2022/10/06 04:12:07;;;;;;;14.47;4.90;;;;;;;9.37;100.00;102705.66;2074109;28;20226;-59
2022/10/06 04:13:07;;;;;;;12.57;5.10;;;;;;;9.38;100.00;102704.47;2074264;28;20481;-59
2022/10/06 04:14:10;;;;;;;18.27;5.53;;;;;;;9.39;100.00;102704.06;2074125;28;20548;-59
2022/10/06 04:15:11;;;;;;;14.38;5.22;;;;;;;9.41;100.00;102703.69;2074206;28;20259;-59
2022/10/06 04:16:20;;;;;;;12.10;4.57;;;;;;;9.44;100.00;102705.72;2074109;28;20259;-58
2022/10/06 04:17:21;;;;;;;13.10;5.07;;;;;;;9.45;100.00;102704.56;2074290;28;20240;-58
2022/10/06 04:18:21;;;;;;;13.17;6.37;;;;;;;9.46;100.00;102703.38;2074208;28;20432;-59
2022/10/06 04:19:22;;;;;;;12.53;7.03;;;;;;;9.47;100.00;102702.19;2074424;28;20201;-59
2022/10/06 04:20:22;;;;;;;12.90;5.77;;;;;;;9.50;100.00;102707.81;2074123;28;20179;-59
2022/10/06 04:21:24;;;;;;;13.10;6.10;;;;;;;9.46;100.00;102697.84;2074043;28;20174;-59
2022/10/06 04:22:25;;;;;;;14.40;5.20;;;;;;;9.55;100.00;102703.91;2073767;28;20192;-59
2022/10/06 04:23:25;;;;;;;13.10;4.43;;;;;;;8.83;100.00;102603.72;2074137;28;20506;-59
2022/10/06 04:24:25;;;;;;;14.33;5.07;;;;;;;9.57;100.00;102707.88;2074122;28;20184;-59
2022/10/06 04:25:26;;;;;;;15.40;5.10;;;;;;;9.50;100.00;102693.97;2074088;28;20615;-59
2022/10/06 04:26:29;;;;;;;12.70;4.70;;;;;;;9.61;100.00;102710.69;2074134;28;20208;-58
2022/10/06 04:27:30;;;;;;;13.80;6.07;;;;;;;9.64;100.00;102709.97;2073998;28;20186;-59
2022/10/06 04:28:31;;;;;;;16.73;6.07;;;;;;;9.64;100.00;102704.41;2074127;28;20443;-59
2022/10/06 04:29:31;;;;;;;12.70;5.83;;;;;;;9.63;100.00;102708.38;2074133;28;20616;-58
2022/10/06 04:30:32;;;;;;;11.47;5.93;;;;;;;9.67;100.00;102710.00;2074034;28;20447;-59
2022/10/06 04:31:35;;;;;;;11.27;6.13;;;;;;;9.67;100.00;102723.84;2074046;28;20191;-59
2022/10/06 04:32:36;;;;;;;18.37;6.53;;;;;;;9.70;100.00;102702.91;2073914;28;20562;-59
2022/10/06 04:33:36;;;;;;;14.10;6.17;;;;;;;9.69;100.00;102701.31;2073797;28;20423;-59
2022/10/06 04:34:37;;;;;;;14.40;6.00;;;;;;;9.71;100.00;102702.53;2073859;28;20263;-59
2022/10/06 04:35:37;;;;;;;13.03;6.33;;;;;;;9.69;100.00;102701.31;2073972;28;20183;-59
2022/10/06 04:36:40;;;;;;;15.33;7.57;;;;;;;8.85;100.00;102564.59;2073134;28;20185;-59
2022/10/06 04:37:40;;;;;;;21.77;10.13;;;;;;;9.76;100.00;102704.97;2073003;28;20192;-58
2022/10/06 04:38:41;;;;;;;21.57;9.60;;;;;;;9.78;100.00;102701.84;2073886;28;20416;-58
2022/10/06 04:39:41;;;;;;;21.57;7.60;;;;;;;9.74;100.00;102699.00;2073683;28;20185;-61
2022/10/06 04:40:42;;;;;;;19.63;6.97;;;;;;;9.36;100.00;102637.59;2073710;28;20557;-61
2022/10/06 04:41:46;;;;;;;9.87;4.13;;;;;;;9.71;100.00;102693.44;2073756;28;20208;-61
2022/10/06 04:42:46;;;;;;;6.73;3.63;;;;;;;9.81;100.00;102709.38;2073951;28;20176;-61
2022/10/06 04:43:47;;;;;;;6.83;4.00;;;;;;;9.81;100.00;102701.06;2073792;28;20426;-61
2022/10/06 04:44:48;;;;;;;16.80;5.93;;;;;;;9.82;100.00;102706.22;2073444;28;20216;-61
2022/10/06 04:45:56;;;;;;;8.00;4.60;;;;;;;9.77;100.00;102695.50;2073281;28;20465;-61
2022/10/06 04:46:57;;;;;;;11.83;6.03;;;;;;;9.82;100.00;102697.94;2073256;28;20295;-61